Řízení letového provozu České republiky
Letiste: LKPR Aktualizace: 24.07.2016 18:08:15  UTC
 METAR LKPR 24.07. 18:00 ...
METAR LKPR 241800Z 01003KT 320V040 9999 FEW025 22/18 Q1018 NOSIG RMK REG QNH 1015=
 TAF LKPR 24.07. 17:00 ...
TAF LKPR 241700Z 2418/2524 08005KT 9999 SCT020 BKN040      BECMG 2418/2421 VRB02KT      PROB30 TEMPO 2418/2421 5000 SHRA SCT020CB BKN030      BECMG 2501/2503 5000 BR SCT010      TEMPO 2503/2506 2500 BR BKN010      BECMG 2506/2508 CAVOK      PROB30 TEMPO 2512/2518 5000 TSRA SCT030CB=